Time;durP1;ratioP1;P1;durP2;ratioP2;P2;SDS_P1;SDS_P2;PMS_P1;PMS_P2;Temp;Humidity;BMP_temperature;BMP_pressure;BME280_temperature;BME280_humidity;BME280_pressure;Samples;Min_cycle;Max_cycle;Signal;HPM_P1;HPM_P2
2021/08/01 00:00:47;;;;;;;3.70;2.63;;;;;;;;;;5015598;28;20205;-72
2021/08/01 00:03:52;;;;;;;4.40;3.00;;;;;;;;;;5015086;28;20221;-72
2021/08/01 00:06:56;;;;;;;7.90;4.10;;;;;;;;;;5015544;28;20182;-72
2021/08/01 00:10:00;;;;;;;10.07;4.80;;;;;;;;;;5015541;28;20181;-72
2021/08/01 00:13:04;;;;;;;8.20;4.03;;;;;;;;;;5014979;28;20217;-72
2021/08/01 00:16:09;;;;;;;5.97;3.43;;;;;;;;;;5002876;28;20182;-72
2021/08/01 00:19:13;;;;;;;5.90;3.83;;;;;;;;;;5015347;28;20174;-72
2021/08/01 00:22:17;;;;;;;12.83;7.13;;;;;;;;;;5015002;28;20209;-72
2021/08/01 00:25:21;;;;;;;14.27;8.73;;;;;;;;;;5013775;28;20522;-72
2021/08/01 00:28:31;;;;;;;15.60;9.37;;;;;;;;;;5014651;28;20182;-72
2021/08/01 00:31:35;;;;;;;14.77;9.63;;;;;;;;;;5015046;28;20178;-72
2021/08/01 00:34:39;;;;;;;11.00;7.33;;;;;;;;;;5002775;28;20181;-72
2021/08/01 00:37:44;;;;;;;14.30;7.50;;;;;;;;;;5014981;28;20186;-73
2021/08/01 00:40:48;;;;;;;10.03;5.33;;;;;;;;;;5014627;28;20668;-73
2021/08/01 00:43:52;;;;;;;7.17;4.90;;;;;;;;;;5014520;28;20225;-73
2021/08/01 00:46:56;;;;;;;8.47;4.40;;;;;;;;;;5013819;28;20186;-73
2021/08/01 00:50:06;;;;;;;5.40;3.67;;;;;;;;;;5002780;28;20181;-73
2021/08/01 00:53:11;;;;;;;9.97;4.03;;;;;;;;;;5014615;28;20229;-73
2021/08/01 00:56:16;;;;;;;4.83;3.37;;;;;;;;;;5014178;28;20197;-73
2021/08/01 00:59:21;;;;;;;9.27;3.63;;;;;;;;;;5002050;28;20676;-73
2021/08/01 01:02:37;;;;;;;8.37;4.00;;;;;;;;;;5002287;28;20221;-74
2021/08/01 01:05:57;;;;;;;6.07;3.60;;;;;;;;;;5014313;28;20190;-73
2021/08/01 01:09:07;;;;;;;6.33;3.40;;;;;;;;;;5014236;28;20177;-73
2021/08/01 01:12:45;;;;;;;6.00;3.57;;;;;;;;;;4993353;28;20216;-73
2021/08/01 01:15:55;;;;;;;6.87;3.67;;;;;;;;;;5002242;28;20337;-73
2021/08/01 01:19:01;;;;;;;4.50;3.47;;;;;;;;;;5002292;28;20181;-73
2021/08/01 01:22:11;;;;;;;4.17;3.73;;;;;;;;;;5013742;28;20577;-73
2021/08/01 01:25:39;;;;;;;6.80;3.90;;;;;;;;;;4991195;28;20182;-73
2021/08/01 01:29:02;;;;;;;12.37;4.20;;;;;;;;;;5013968;28;20177;-73
2021/08/01 01:32:10;;;;;;;9.73;4.20;;;;;;;;;;5002032;28;20218;-73
2021/08/01 01:35:17;;;;;;;8.47;4.27;;;;;;;;;;4991043;28;20178;-73
2021/08/01 01:38:25;;;;;;;8.73;4.13;;;;;;;;;;5013421;28;20529;-73
2021/08/01 01:42:03;;;;;;;9.13;4.40;;;;;;;;;;5013541;28;20703;-73
2021/08/01 01:45:23;;;;;;;7.73;4.00;;;;;;;;;;4992361;28;20189;-73
2021/08/01 01:48:28;;;;;;;4.40;3.77;;;;;;;;;;4980006;28;20185;-72
2021/08/01 01:51:34;;;;;;;7.17;4.07;;;;;;;;;;5001919;28;20177;-73
2021/08/01 01:54:38;;;;;;;6.67;4.00;;;;;;;;;;5013989;28;20181;-73
2021/08/01 01:57:45;;;;;;;6.43;3.70;;;;;;;;;;5001821;28;20201;-73
2021/08/01 02:00:50;;;;;;;5.70;4.10;;;;;;;;;;5001549;28;20209;-72
2021/08/01 02:03:56;;;;;;;8.37;4.20;;;;;;;;;;5013342;28;20217;-72
2021/08/01 02:07:22;;;;;;;8.47;3.90;;;;;;;;;;5013258;28;20201;-73
2021/08/01 02:10:45;;;;;;;11.73;4.13;;;;;;;;;;5001487;28;20193;-73
2021/08/01 02:14:02;;;;;;;6.63;3.93;;;;;;;;;;5001174;28;20221;-73
2021/08/01 02:17:11;;;;;;;9.33;4.53;;;;;;;;;;5001440;28;20181;-73
2021/08/01 02:20:20;;;;;;;9.17;4.23;;;;;;;;;;5013203;28;20189;-73
2021/08/01 02:23:50;;;;;;;6.13;4.20;;;;;;;;;;5013467;28;20217;-73
2021/08/01 02:26:57;;;;;;;7.73;3.93;;;;;;;;;;4989882;28;20205;-73
2021/08/01 02:30:03;;;;;;;4.20;3.80;;;;;;;;;;5001157;28;20518;-73
2021/08/01 02:33:10;;;;;;;6.87;4.57;;;;;;;;;;5013328;28;20213;-73
2021/08/01 02:36:15;;;;;;;7.53;4.23;;;;;;;;;;5013258;28;20537;-73
2021/08/01 02:39:22;;;;;;;6.77;4.43;;;;;;;;;;5001439;28;20182;-73
2021/08/01 02:42:29;;;;;;;7.93;4.37;;;;;;;;;;5013045;28;20221;-73
2021/08/01 02:45:38;;;;;;;9.77;4.17;;;;;;;;;;5001115;28;20177;-73
2021/08/01 02:48:43;;;;;;;8.40;4.60;;;;;;;;;;5001534;28;20174;-73
2021/08/01 02:51:50;;;;;;;6.60;4.43;;;;;;;;;;5016624;28;20178;-73
2021/08/01 02:54:57;;;;;;;6.87;4.10;;;;;;;;;;4982600;28;20193;-73
2021/08/01 02:58:04;;;;;;;8.07;4.60;;;;;;;;;;5004238;28;20205;-73
2021/08/01 03:01:14;;;;;;;8.47;4.33;;;;;;;;;;5004212;28;20541;-73
2021/08/01 03:04:19;;;;;;;6.57;4.47;;;;;;;;;;4993288;28;20181;-73
2021/08/01 03:07:24;;;;;;;7.10;4.30;;;;;;;;;;5004381;28;20178;-73
2021/08/01 03:10:28;;;;;;;5.90;4.10;;;;;;;;;;5016452;28;20181;-73
2021/08/01 03:13:33;;;;;;;5.37;3.97;;;;;;;;;;5003982;28;20209;-73
2021/08/01 03:16:37;;;;;;;6.37;4.40;;;;;;;;;;5016336;28;20185;-73
2021/08/01 03:19:41;;;;;;;9.13;4.40;;;;;;;;;;5004247;28;20181;-73
2021/08/01 03:22:47;;;;;;;6.47;4.20;;;;;;;;;;5003454;28;20221;-74
2021/08/01 03:25:51;;;;;;;7.23;3.73;;;;;;;;;;5004383;28;20633;-74
2021/08/01 03:28:56;;;;;;;6.30;3.87;;;;;;;;;;5016244;28;20182;-74
2021/08/01 03:32:00;;;;;;;6.33;3.67;;;;;;;;;;5003990;28;20213;-74
2021/08/01 03:35:06;;;;;;;7.57;3.80;;;;;;;;;;5016551;28;20177;-74
2021/08/01 03:38:16;;;;;;;10.43;4.27;;;;;;;;;;5003793;28;20194;-73
2021/08/01 03:41:40;;;;;;;6.83;4.13;;;;;;;;;;5015602;28;20202;-74
2021/08/01 03:44:48;;;;;;;6.63;3.80;;;;;;;;;;5015698;28;20189;-74
2021/08/01 03:47:52;;;;;;;4.20;3.67;;;;;;;;;;5003308;28;20201;-74
2021/08/01 03:50:56;;;;;;;5.43;3.83;;;;;;;;;;5003133;28;20185;-74
2021/08/01 03:54:00;;;;;;;6.30;3.80;;;;;;;;;;5003346;28;20190;-74
2021/08/01 03:57:05;;;;;;;6.37;3.83;;;;;;;;;;5015567;28;20186;-74
2021/08/01 04:00:09;;;;;;;4.33;3.70;;;;;;;;;;5014416;28;20227;-75
2021/08/01 04:03:17;;;;;;;11.13;3.67;;;;;;;;;;5014266;28;20217;-75
2021/08/01 04:06:21;;;;;;;7.77;3.67;;;;;;;;;;4991956;28;20185;-76
2021/08/01 04:09:25;;;;;;;6.77;3.60;;;;;;;;;;4991883;28;20173;-75
2021/08/01 04:12:31;;;;;;;4.17;3.10;;;;;;;;;;5003103;28;20545;-75
2021/08/01 04:15:35;;;;;;;3.87;3.00;;;;;;;;;;5002894;28;20182;-75
2021/08/01 04:18:39;;;;;;;2.97;2.50;;;;;;;;;;5015162;28;20656;-74
2021/08/01 04:21:44;;;;;;;4.33;2.90;;;;;;;;;;5014622;28;20217;-74
2021/08/01 04:24:49;;;;;;;2.50;2.30;;;;;;;;;;5014769;28;20209;-74
2021/08/01 04:27:53;;;;;;;5.23;3.13;;;;;;;;;;5013914;28;20201;-74
2021/08/01 04:30:58;;;;;;;6.23;3.00;;;;;;;;;;5014944;28;20227;-74
2021/08/01 04:34:02;;;;;;;3.70;3.33;;;;;;;;;;5002820;28;20173;-73
2021/08/01 04:37:06;;;;;;;3.27;2.97;;;;;;;;;;5014828;28;20182;-74
2021/08/01 04:40:11;;;;;;;3.70;2.83;;;;;;;;;;5014533;28;20177;-73
2021/08/01 04:43:14;;;;;;;5.20;2.80;;;;;;;;;;5002114;28;20229;-74
2021/08/01 04:46:18;;;;;;;5.03;3.30;;;;;;;;;;5002649;28;20197;-74
2021/08/01 04:49:22;;;;;;;5.33;3.23;;;;;;;;;;5013802;28;20178;-74
2021/08/01 04:52:26;;;;;;;3.57;3.10;;;;;;;;;;5014230;28;20221;-74
2021/08/01 04:55:31;;;;;;;3.40;3.10;;;;;;;;;;5014447;28;20205;-74
2021/08/01 04:58:35;;;;;;;3.13;2.87;;;;;;;;;;5013207;28;20545;-74
2021/08/01 05:01:39;;;;;;;3.33;2.80;;;;;;;;;;5014227;28;20201;-74
2021/08/01 05:04:43;;;;;;;5.53;3.27;;;;;;;;;;5002045;28;20202;-74
2021/08/01 05:07:47;;;;;;;4.10;3.00;;;;;;;;;;5013988;28;20205;-74
2021/08/01 05:10:51;;;;;;;4.73;3.20;;;;;;;;;;5001771;28;20209;-74
2021/08/01 05:13:55;;;;;;;3.50;3.07;;;;;;;;;;5002018;28;20557;-74
2021/08/01 05:16:59;;;;;;;4.43;3.30;;;;;;;;;;5014388;28;20201;-74
2021/08/01 05:20:04;;;;;;;5.80;3.23;;;;;;;;;;5013849;28;20186;-75
2021/08/01 05:23:08;;;;;;;3.37;2.90;;;;;;;;;;5013859;28;20229;-74
2021/08/01 05:26:13;;;;;;;3.83;3.20;;;;;;;;;;5014339;28;20173;-74
2021/08/01 05:29:16;;;;;;;3.43;3.13;;;;;;;;;;5014041;28;20513;-73
2021/08/01 05:32:20;;;;;;;4.43;2.83;;;;;;;;;;5001562;28;20212;-74
2021/08/01 05:35:25;;;;;;;2.80;2.60;;;;;;;;;;5014461;28;20181;-74
2021/08/01 05:38:29;;;;;;;4.40;2.87;;;;;;;;;;5013724;28;20177;-74
2021/08/01 05:41:34;;;;;;;4.33;2.60;;;;;;;;;;5013834;28;20637;-74
2021/08/01 05:44:38;;;;;;;3.13;2.83;;;;;;;;;;5013700;28;20174;-74
2021/08/01 05:47:42;;;;;;;5.17;2.90;;;;;;;;;;5013274;28;20177;-74
2021/08/01 05:50:46;;;;;;;3.17;2.83;;;;;;;;;;5001757;28;20177;-74
2021/08/01 05:53:50;;;;;;;3.70;3.17;;;;;;;;;;5001933;28;20212;-74
2021/08/01 05:56:54;;;;;;;3.77;3.37;;;;;;;;;;5014029;28;20181;-74
2021/08/01 05:59:58;;;;;;;4.87;3.70;;;;;;;;;;5012569;28;20205;-74
2021/08/01 06:03:02;;;;;;;5.20;3.90;;;;;;;;;;5001092;28;20229;-74
2021/08/01 06:06:18;;;;;;;5.47;3.80;;;;;;;;;;5013615;28;20182;-74
2021/08/01 06:09:22;;;;;;;5.13;3.90;;;;;;;;;;4990683;28;20186;-74
2021/08/01 06:12:26;;;;;;;4.20;3.70;;;;;;;;;;5001442;28;20217;-74
2021/08/01 06:15:30;;;;;;;4.30;3.90;;;;;;;;;;5012515;28;20186;-74
2021/08/01 06:18:36;;;;;;;6.13;3.57;;;;;;;;;;5013548;28;20185;-74
2021/08/01 06:21:40;;;;;;;4.73;3.90;;;;;;;;;;5013284;28;20189;-74
2021/08/01 06:24:44;;;;;;;5.13;3.67;;;;;;;;;;5003471;28;20185;-74
2021/08/01 06:27:48;;;;;;;4.87;3.83;;;;;;;;;;5017296;28;20177;-74
2021/08/01 06:30:53;;;;;;;6.97;3.97;;;;;;;;;;5016944;28;20205;-74
2021/08/01 06:33:58;;;;;;;3.80;3.27;;;;;;;;;;5017083;28;20213;-74
2021/08/01 06:37:02;;;;;;;4.37;3.23;;;;;;;;;;5017044;28;20201;-74
2021/08/01 06:40:06;;;;;;;5.23;3.53;;;;;;;;;;5017040;28;20181;-74
2021/08/01 06:43:10;;;;;;;7.80;3.20;;;;;;;;;;5005045;28;20221;-74
2021/08/01 06:46:15;;;;;;;5.17;3.30;;;;;;;;;;5004884;28;20173;-74
2021/08/01 06:49:19;;;;;;;3.93;3.07;;;;;;;;;;5017155;28;20538;-74
2021/08/01 06:52:23;;;;;;;4.03;3.40;;;;;;;;;;5016430;28;20220;-74
2021/08/01 06:55:27;;;;;;;3.43;3.13;;;;;;;;;;5004712;28;20177;-74
2021/08/01 06:58:31;;;;;;;3.93;3.40;;;;;;;;;;5016377;28;20201;-74
2021/08/01 07:01:39;;;;;;;5.33;3.80;;;;;;;;;;5004174;28;20193;-73
2021/08/01 07:04:43;;;;;;;4.57;3.60;;;;;;;;;;5004180;28;20174;-74
2021/08/01 07:07:48;;;;;;;6.10;3.97;;;;;;;;;;5016303;28;20177;-74
2021/08/01 07:10:52;;;;;;;3.67;3.27;;;;;;;;;;5004113;28;20529;-74
2021/08/01 07:13:56;;;;;;;7.87;3.33;;;;;;;;;;5004530;28;20213;-74
2021/08/01 07:17:01;;;;;;;5.03;3.57;;;;;;;;;;5004023;28;20197;-74
2021/08/01 07:20:08;;;;;;;4.30;2.80;;;;;;;;;;5016017;28;20201;-74
2021/08/01 07:23:12;;;;;;;3.93;2.90;;;;;;;;;;5003842;28;20588;-74
2021/08/01 07:26:17;;;;;;;4.13;3.03;;;;;;;;;;5016450;28;20652;-74
2021/08/01 07:29:22;;;;;;;5.27;3.07;;;;;;;;;;5015914;28;20181;-74
2021/08/01 07:32:26;;;;;;;4.20;3.10;;;;;;;;;;5004000;28;20214;-74
2021/08/01 07:35:30;;;;;;;3.17;2.87;;;;;;;;;;5015537;28;20177;-74
2021/08/01 07:38:34;;;;;;;4.10;3.20;;;;;;;;;;5014832;28;20185;-74
2021/08/01 07:41:39;;;;;;;4.57;3.27;;;;;;;;;;5015564;28;20641;-74
2021/08/01 07:44:47;;;;;;;5.07;3.10;;;;;;;;;;5015933;28;20182;-74
2021/08/01 07:47:51;;;;;;;4.60;3.20;;;;;;;;;;5003543;28;20182;-74
2021/08/01 07:50:56;;;;;;;4.27;3.13;;;;;;;;;;5015457;28;20186;-73
2021/08/01 07:54:00;;;;;;;3.60;2.97;;;;;;;;;;5003496;28;20209;-74
2021/08/01 07:57:06;;;;;;;4.80;3.20;;;;;;;;;;5015470;28;20199;-73
2021/08/01 08:00:11;;;;;;;4.13;3.10;;;;;;;;;;5003167;28;20213;-74
2021/08/01 08:03:20;;;;;;;5.07;3.90;;;;;;;;;;5015040;28;20229;-74
2021/08/01 08:06:24;;;;;;;4.67;2.77;;;;;;;;;;5014358;28;20185;-74
2021/08/01 08:09:28;;;;;;;3.17;2.63;;;;;;;;;;5015408;28;20185;-74
2021/08/01 08:12:33;;;;;;;3.07;2.40;;;;;;;;;;5014648;28;20217;-74
2021/08/01 08:15:37;;;;;;;4.57;2.50;;;;;;;;;;5014231;28;20522;-73
2021/08/01 08:18:41;;;;;;;4.53;2.27;;;;;;;;;;5015554;28;20185;-74
2021/08/01 08:21:45;;;;;;;2.50;2.30;;;;;;;;;;5013999;28;20181;-74
2021/08/01 08:24:51;;;;;;;2.80;2.23;;;;;;;;;;5014021;28;20518;-74
2021/08/01 08:27:54;;;;;;;4.27;2.70;;;;;;;;;;5015026;28;20189;-74
2021/08/01 08:30:59;;;;;;;3.43;2.70;;;;;;;;;;5003154;28;20514;-74
2021/08/01 08:34:03;;;;;;;3.10;2.40;;;;;;;;;;5015155;28;20189;-74
2021/08/01 08:37:09;;;;;;;3.10;2.20;;;;;;;;;;5014234;28;20514;-74
2021/08/01 08:40:13;;;;;;;3.43;2.37;;;;;;;;;;5014948;28;20197;-74
2021/08/01 08:43:17;;;;;;;3.53;2.40;;;;;;;;;;5014281;28;20220;-74
2021/08/01 08:46:23;;;;;;;2.27;2.07;;;;;;;;;;5013602;28;20744;-74
2021/08/01 08:49:28;;;;;;;3.30;2.23;;;;;;;;;;5014616;28;20181;-74
2021/08/01 08:52:35;;;;;;;3.60;2.67;;;;;;;;;;5014461;28;20545;-74
2021/08/01 08:55:40;;;;;;;5.73;2.40;;;;;;;;;;5014588;28;20181;-74
2021/08/01 08:58:49;;;;;;;4.50;2.40;;;;;;;;;;5014278;28;20205;-74
2021/08/01 09:01:53;;;;;;;2.70;2.50;;;;;;;;;;5013262;28;20541;-73
2021/08/01 09:04:57;;;;;;;2.57;2.20;;;;;;;;;;4991117;28;20511;-74
2021/08/01 09:08:01;;;;;;;3.57;2.27;;;;;;;;;;5002194;28;20174;-73
2021/08/01 09:11:06;;;;;;;2.43;2.17;;;;;;;;;;5014543;28;20197;-74
2021/08/01 09:14:21;;;;;;;4.07;2.37;;;;;;;;;;5014143;28;20181;-74
2021/08/01 09:17:36;;;;;;;2.43;2.00;;;;;;;;;;5014232;28;20181;-73
2021/08/01 09:20:50;;;;;;;2.23;2.03;;;;;;;;;;5013876;28;20193;-75
2021/08/01 09:23:54;;;;;;;2.60;2.17;;;;;;;;;;4990504;28;20217;-74
2021/08/01 09:27:02;;;;;;;3.07;2.40;;;;;;;;;;5013782;28;20193;-74
2021/08/01 09:30:06;;;;;;;2.53;2.00;;;;;;;;;;5013241;28;20189;-74
2021/08/01 09:33:11;;;;;;;3.43;2.33;;;;;;;;;;5013919;28;20217;-73
2021/08/01 09:36:17;;;;;;;4.43;2.20;;;;;;;;;;5001589;28;20182;-74
2021/08/01 09:39:22;;;;;;;3.03;1.83;;;;;;;;;;5001830;28;20644;-73
2021/08/01 09:42:38;;;;;;;6.10;2.40;;;;;;;;;;5001935;28;20217;-74
2021/08/01 09:45:42;;;;;;;2.30;2.00;;;;;;;;;;5014167;28;20759;-74
2021/08/01 09:49:11;;;;;;;2.97;1.77;;;;;;;;;;5014109;28;20186;-74
2021/08/01 09:52:22;;;;;;;3.83;2.20;;;;;;;;;;5013461;28;20212;-74
2021/08/01 09:55:26;;;;;;;3.13;2.20;;;;;;;;;;5001721;28;20624;-74
2021/08/01 09:58:36;;;;;;;2.63;2.00;;;;;;;;;;5015850;28;20676;-74
2021/08/01 10:01:50;;;;;;;2.10;1.90;;;;;;;;;;5005704;28;20189;-74
2021/08/01 10:05:13;;;;;;;3.60;2.20;;;;;;;;;;5017715;28;20221;-74
2021/08/01 10:08:35;;;;;;;2.53;1.80;;;;;;;;;;5017860;28;20514;-74
2021/08/01 10:11:51;;;;;;;3.23;1.80;;;;;;;;;;5017430;28;20189;-73
2021/08/01 10:14:55;;;;;;;5.37;2.30;;;;;;;;;;5017433;28;20177;-74
2021/08/01 10:17:59;;;;;;;2.60;2.40;;;;;;;;;;5005384;28;20178;-74
2021/08/01 10:21:04;;;;;;;2.60;2.10;;;;;;;;;;5005071;28;20181;-73
2021/08/01 10:24:13;;;;;;;6.77;2.73;;;;;;;;;;5016888;28;20545;-73
2021/08/01 10:27:20;;;;;;;2.60;2.40;;;;;;;;;;5005239;28;20182;-73
2021/08/01 10:30:27;;;;;;;3.60;2.27;;;;;;;;;;5017130;28;20189;-73
2021/08/01 10:33:38;;;;;;;2.90;2.40;;;;;;;;;;5017061;28;20221;-73
2021/08/01 10:36:53;;;;;;;4.27;2.40;;;;;;;;;;5017085;28;20530;-73
2021/08/01 10:40:01;;;;;;;3.43;2.60;;;;;;;;;;5017244;28;20510;-73
2021/08/01 10:43:10;;;;;;;3.33;2.93;;;;;;;;;;5016882;28;20213;-73
2021/08/01 10:46:18;;;;;;;5.57;2.40;;;;;;;;;;5015901;28;20189;-73
2021/08/01 10:49:23;;;;;;;4.47;2.53;;;;;;;;;;5005418;28;20181;-74
2021/08/01 10:52:33;;;;;;;3.33;2.60;;;;;;;;;;5004610;28;20225;-73
2021/08/01 10:55:37;;;;;;;2.70;2.50;;;;;;;;;;5015972;28;20202;-74
2021/08/01 10:58:41;;;;;;;5.23;2.70;;;;;;;;;;5005094;28;20209;-74
2021/08/01 11:02:27;;;;;;;4.03;2.60;;;;;;;;;;5017231;28;20213;-73
2021/08/01 11:05:34;;;;;;;5.07;2.53;;;;;;;;;;4965082;28;20179;-73
2021/08/01 11:09:12;;;;;;;3.23;2.27;;;;;;;;;;4976962;28;20182;-74
2021/08/01 11:12:19;;;;;;;4.00;2.10;;;;;;;;;;5005981;28;20217;-73
2021/08/01 11:15:45;;;;;;;3.40;2.17;;;;;;;;;;5005415;28;20521;-73
2021/08/01 11:18:49;;;;;;;2.53;2.07;;;;;;;;;;5004640;28;20185;-76
2021/08/01 11:21:53;;;;;;;2.70;2.30;;;;;;;;;;5016025;28;20185;-73
2021/08/01 11:25:19;;;;;;;3.77;2.17;;;;;;;;;;5015673;28;20231;-73
2021/08/01 11:28:28;;;;;;;4.33;2.10;;;;;;;;;;5016404;28;20198;-73
2021/08/01 11:31:33;;;;;;;3.67;2.30;;;;;;;;;;5015868;28;20190;-73
2021/08/01 11:34:37;;;;;;;2.80;2.37;;;;;;;;;;5004472;28;20185;-73
2021/08/01 11:37:41;;;;;;;4.47;2.60;;;;;;;;;;5016778;28;20181;-73
2021/08/01 11:40:46;;;;;;;6.30;2.77;;;;;;;;;;5016008;28;20185;-73
2021/08/01 11:44:20;;;;;;;2.50;2.30;;;;;;;;;;5015974;28;20221;-73
2021/08/01 11:47:25;;;;;;;2.47;2.27;;;;;;;;;;5015804;28;20182;-74
2021/08/01 11:50:29;;;;;;;2.90;2.10;;;;;;;;;;5015770;28;20186;-74
2021/08/01 11:53:34;;;;;;;3.57;2.20;;;;;;;;;;5015401;28;20225;-74
2021/08/01 11:56:40;;;;;;;3.57;2.17;;;;;;;;;;5015783;28;20186;-74
2021/08/01 11:59:51;;;;;;;3.97;2.47;;;;;;;;;;5003229;28;20680;-74
2021/08/01 12:02:58;;;;;;;4.47;2.50;;;;;;;;;;5003233;28;20213;-74
2021/08/01 12:06:02;;;;;;;4.00;2.70;;;;;;;;;;5015293;28;20174;-74
2021/08/01 12:09:29;;;;;;;3.60;2.47;;;;;;;;;;5014693;28;20178;-74
2021/08/01 12:12:33;;;;;;;3.53;2.20;;;;;;;;;;5016001;28;20221;-73
2021/08/01 12:15:38;;;;;;;3.93;2.80;;;;;;;;;;5003625;28;20186;-73
2021/08/01 12:18:42;;;;;;;3.73;2.37;;;;;;;;;;5015962;28;20189;-74
2021/08/01 12:21:48;;;;;;;4.27;2.40;;;;;;;;;;5014763;28;20177;-74
2021/08/01 12:24:57;;;;;;;4.67;2.90;;;;;;;;;;5015007;28;20225;-74
2021/08/01 12:28:01;;;;;;;3.73;2.50;;;;;;;;;;5015803;28;20186;-74
2021/08/01 12:31:05;;;;;;;3.37;2.23;;;;;;;;;;5015028;28;20201;-74
2021/08/01 12:34:09;;;;;;;3.07;2.43;;;;;;;;;;5015716;28;20193;-74
2021/08/01 12:37:13;;;;;;;6.90;2.63;;;;;;;;;;5014779;28;20522;-74
2021/08/01 12:40:30;;;;;;;4.20;2.50;;;;;;;;;;5014395;28;20189;-73
2021/08/01 12:43:34;;;;;;;5.00;2.70;;;;;;;;;;5014613;28;20221;-73
2021/08/01 12:46:39;;;;;;;5.13;2.83;;;;;;;;;;5014750;28;20177;-73
2021/08/01 12:49:43;;;;;;;3.13;2.60;;;;;;;;;;5014777;28;20173;-74
2021/08/01 12:52:50;;;;;;;4.10;2.33;;;;;;;;;;5014797;28;20221;-73
2021/08/01 12:56:02;;;;;;;3.53;2.67;;;;;;;;;;5002827;28;20248;-73
2021/08/01 12:59:10;;;;;;;3.07;2.50;;;;;;;;;;5002276;28;20213;-73
2021/08/01 13:02:14;;;;;;;4.73;2.80;;;;;;;;;;5014382;28;20229;-73
2021/08/01 13:05:24;;;;;;;3.60;2.20;;;;;;;;;;5014239;28;20541;-73
2021/08/01 13:08:34;;;;;;;3.37;2.20;;;;;;;;;;5014339;28;20660;-73
2021/08/01 13:11:38;;;;;;;3.70;2.17;;;;;;;;;;5002855;28;20185;-73
2021/08/01 13:14:44;;;;;;;2.67;1.93;;;;;;;;;;5015065;28;20652;-73
2021/08/01 13:17:48;;;;;;;2.97;2.30;;;;;;;;;;5013928;28;20177;-74
2021/08/01 13:20:52;;;;;;;2.90;2.37;;;;;;;;;;5014304;28;20197;-73
2021/08/01 13:24:10;;;;;;;2.53;2.33;;;;;;;;;;5014131;28;20217;-74
2021/08/01 13:27:16;;;;;;;4.73;2.37;;;;;;;;;;5014210;28;20190;-73
2021/08/01 13:30:21;;;;;;;2.87;2.07;;;;;;;;;;5002475;28;20185;-73
2021/08/01 13:33:25;;;;;;;7.13;1.90;;;;;;;;;;5001355;28;20284;-73
2021/08/01 13:36:57;;;;;;;2.90;2.10;;;;;;;;;;5002065;28;20181;-74
2021/08/01 13:40:04;;;;;;;4.23;2.43;;;;;;;;;;5014666;28;20173;-73
2021/08/01 13:43:19;;;;;;;2.90;2.00;;;;;;;;;;5013869;28;20221;-74
2021/08/01 13:46:23;;;;;;;3.10;2.10;;;;;;;;;;5014530;28;20186;-73
2021/08/01 13:49:27;;;;;;;4.93;2.27;;;;;;;;;;5013379;28;20534;-74
2021/08/01 13:52:33;;;;;;;4.53;1.90;;;;;;;;;;4998913;28;20209;-73
2021/08/01 13:55:37;;;;;;;2.47;1.80;;;;;;;;;;5011593;28;20177;-73
2021/08/01 13:58:41;;;;;;;3.70;1.67;;;;;;;;;;5013050;28;20201;-73
2021/08/01 14:01:45;;;;;;;2.97;1.87;;;;;;;;;;4998342;28;20210;-74
2021/08/01 14:04:50;;;;;;;2.07;1.63;;;;;;;;;;4959626;28;20563;-73
2021/08/01 14:07:54;;;;;;;3.67;1.93;;;;;;;;;;4994703;28;20178;-74
2021/08/01 14:10:58;;;;;;;1.90;1.70;;;;;;;;;;4994216;28;20191;-74
2021/08/01 14:14:02;;;;;;;1.90;1.53;;;;;;;;;;4994436;28;20206;-74
2021/08/01 14:17:08;;;;;;;1.70;1.57;;;;;;;;;;4981977;28;20198;-74
2021/08/01 14:20:13;;;;;;;3.10;1.70;;;;;;;;;;4993841;28;20202;-74
2021/08/01 14:23:16;;;;;;;1.87;1.73;;;;;;;;;;5000233;28;20220;-73
2021/08/01 14:26:22;;;;;;;5.67;1.70;;;;;;;;;;5001502;28;20209;-74
2021/08/01 14:29:32;;;;;;;2.27;1.80;;;;;;;;;;4996999;28;20202;-73
2021/08/01 14:32:44;;;;;;;2.87;1.77;;;;;;;;;;5007918;28;20230;-74
2021/08/01 14:35:50;;;;;;;3.23;2.00;;;;;;;;;;4981624;28;20170;-73
2021/08/01 14:38:56;;;;;;;5.30;1.63;;;;;;;;;;4993069;28;20190;-74
2021/08/01 14:42:00;;;;;;;2.07;1.87;;;;;;;;;;4981627;28;20218;-74
2021/08/01 14:45:05;;;;;;;2.10;1.90;;;;;;;;;;4997444;28;20209;-74
2021/08/01 14:48:12;;;;;;;2.10;1.73;;;;;;;;;;5010584;28;20186;-73
2021/08/01 14:54:39;;;;;;;2.60;1.73;;;;;;;;;;5011754;28;20198;-73
2021/08/01 14:57:53;;;;;;;4.50;1.73;;;;;;;;;;5000340;28;20201;-73
2021/08/01 15:01:04;;;;;;;2.50;1.53;;;;;;;;;;4985343;28;20202;-74
2021/08/01 15:04:14;;;;;;;1.97;1.57;;;;;;;;;;4996178;28;20657;-73
2021/08/01 15:07:31;;;;;;;1.67;1.53;;;;;;;;;;5013220;28;20557;-73
2021/08/01 15:10:39;;;;;;;1.60;1.50;;;;;;;;;;4996645;28;20190;-73
2021/08/01 15:14:14;;;;;;;4.60;1.27;;;;;;;;;;5016398;28;20225;-74
2021/08/01 15:17:26;;;;;;;1.80;1.60;;;;;;;;;;5000165;28;20198;-73
2021/08/01 15:20:30;;;;;;;1.73;1.50;;;;;;;;;;5008508;28;20190;-74
2021/08/01 15:23:48;;;;;;;3.10;1.60;;;;;;;;;;4996379;28;20226;-73
2021/08/01 15:26:53;;;;;;;1.93;1.43;;;;;;;;;;4984740;28;20174;-73
2021/08/01 15:30:02;;;;;;;4.63;1.57;;;;;;;;;;4996393;28;20514;-74
2021/08/01 15:33:06;;;;;;;5.17;1.70;;;;;;;;;;5002522;28;20226;-73
2021/08/01 15:36:12;;;;;;;3.87;1.47;;;;;;;;;;4995711;28;20182;-73
2021/08/01 15:39:16;;;;;;;1.83;1.50;;;;;;;;;;4996325;28;20649;-73
2021/08/01 15:42:21;;;;;;;2.27;1.40;;;;;;;;;;5004375;28;20562;-73
2021/08/01 15:45:26;;;;;;;2.13;1.23;;;;;;;;;;5005805;28;20222;-74
2021/08/01 15:48:31;;;;;;;2.27;1.57;;;;;;;;;;4997445;28;20206;-73
2021/08/01 15:51:42;;;;;;;2.67;1.37;;;;;;;;;;4991952;28;20201;-73
2021/08/01 15:54:54;;;;;;;2.10;1.60;;;;;;;;;;5016460;28;20173;-74
2021/08/01 15:58:11;;;;;;;4.90;1.63;;;;;;;;;;5005863;28;20194;-74
2021/08/01 16:01:29;;;;;;;1.53;1.40;;;;;;;;;;5001341;28;20194;-73
2021/08/01 16:04:53;;;;;;;3.00;1.70;;;;;;;;;;5002429;28;20202;-73
2021/08/01 16:08:08;;;;;;;3.23;1.53;;;;;;;;;;4995955;28;20194;-73
2021/08/01 16:11:15;;;;;;;2.63;1.60;;;;;;;;;;4997002;28;20194;-73
2021/08/01 16:14:24;;;;;;;2.97;1.47;;;;;;;;;;4995628;28;20182;-74
2021/08/01 16:17:35;;;;;;;2.37;1.67;;;;;;;;;;4997362;28;20194;-72
2021/08/01 16:20:40;;;;;;;4.30;1.50;;;;;;;;;;4961870;28;20198;-73
2021/08/01 16:23:51;;;;;;;1.70;1.57;;;;;;;;;;4996437;28;20226;-73
2021/08/01 16:26:55;;;;;;;2.30;1.60;;;;;;;;;;4996150;28;20280;-73
2021/08/01 16:30:02;;;;;;;4.60;1.70;;;;;;;;;;4973933;28;20190;-73
2021/08/01 16:33:07;;;;;;;1.67;1.50;;;;;;;;;;4994513;28;20213;-73
2021/08/01 16:36:15;;;;;;;1.70;1.50;;;;;;;;;;4995372;28;20175;-73
2021/08/01 16:39:19;;;;;;;1.97;1.47;;;;;;;;;;4995684;28;20190;-73
2021/08/01 16:43:06;;;;;;;1.70;1.43;;;;;;;;;;4994958;28;20696;-74
2021/08/01 16:46:16;;;;;;;1.90;1.50;;;;;;;;;;4997311;28;20221;-73
2021/08/01 16:49:28;;;;;;;1.93;1.57;;;;;;;;;;5010872;28;20190;-73
2021/08/01 16:52:53;;;;;;;2.43;1.33;;;;;;;;;;4989808;28;20213;-73
2021/08/01 16:56:14;;;;;;;2.10;1.37;;;;;;;;;;4998530;28;20182;-73
2021/08/01 16:59:30;;;;;;;3.37;1.50;;;;;;;;;;4994647;28;20214;-73
2021/08/01 17:03:08;;;;;;;1.50;1.30;;;;;;;;;;4994860;28;20234;-73
2021/08/01 17:06:24;;;;;;;1.47;1.20;;;;;;;;;;4994616;28;20206;-73
2021/08/01 17:09:30;;;;;;;2.40;1.80;;;;;;;;;;4994261;28;20202;-73
2021/08/01 17:12:37;;;;;;;2.57;1.40;;;;;;;;;;4994696;28;20230;-73
2021/08/01 17:15:41;;;;;;;3.70;1.60;;;;;;;;;;5012908;28;20185;-73
2021/08/01 17:18:47;;;;;;;3.70;1.80;;;;;;;;;;5013229;28;20189;-73
2021/08/01 17:21:52;;;;;;;3.67;1.47;;;;;;;;;;4982552;28;20178;-73
2021/08/01 17:24:57;;;;;;;2.03;1.43;;;;;;;;;;4994116;28;20210;-73
2021/08/01 17:28:06;;;;;;;2.13;1.70;;;;;;;;;;4999661;28;20189;-73
2021/08/01 17:31:16;;;;;;;6.87;1.90;;;;;;;;;;5013711;28;20186;-73
2021/08/01 17:34:24;;;;;;;2.63;1.47;;;;;;;;;;5009994;28;20191;-73
2021/08/01 17:37:29;;;;;;;1.70;1.60;;;;;;;;;;4982598;28;20622;-73
2021/08/01 17:40:33;;;;;;;4.13;1.40;;;;;;;;;;5012050;28;20522;-73
2021/08/01 17:43:39;;;;;;;2.77;1.67;;;;;;;;;;4992121;28;20218;-73
2021/08/01 17:46:44;;;;;;;4.87;1.73;;;;;;;;;;4997388;28;20217;-73
2021/08/01 17:49:49;;;;;;;4.63;1.93;;;;;;;;;;4990616;28;20182;-73
2021/08/01 17:52:54;;;;;;;2.57;1.60;;;;;;;;;;5002465;28;20569;-73
2021/08/01 17:55:59;;;;;;;2.63;1.50;;;;;;;;;;4997637;28;20201;-73
2021/08/01 17:59:05;;;;;;;2.80;2.17;;;;;;;;;;4999239;28;20673;-73
2021/08/01 18:02:10;;;;;;;4.10;2.10;;;;;;;;;;4992068;28;20224;-72
2021/08/01 18:05:16;;;;;;;2.53;2.00;;;;;;;;;;5008673;28;20177;-72
2021/08/01 18:08:30;;;;;;;4.47;1.80;;;;;;;;;;4994446;28;20530;-72
2021/08/01 18:11:47;;;;;;;2.33;1.80;;;;;;;;;;4997367;28;20178;-72
2021/08/01 18:15:01;;;;;;;2.57;2.20;;;;;;;;;;4990528;28;20210;-72
2021/08/01 18:18:10;;;;;;;2.93;1.73;;;;;;;;;;4978408;28;20190;-72
2021/08/01 18:21:16;;;;;;;2.27;1.97;;;;;;;;;;5006444;28;20201;-72
2021/08/01 18:24:23;;;;;;;3.93;1.70;;;;;;;;;;5003829;28;20190;-72
2021/08/01 18:27:28;;;;;;;3.23;1.60;;;;;;;;;;5009208;28;20221;-72
2021/08/01 18:30:31;;;;;;;4.03;1.73;;;;;;;;;;5013724;28;20530;-73
2021/08/01 18:33:39;;;;;;;2.07;1.70;;;;;;;;;;4997736;28;20570;-72
2021/08/01 18:36:43;;;;;;;2.40;1.83;;;;;;;;;;4993905;28;20182;-72
2021/08/01 18:39:49;;;;;;;6.00;2.00;;;;;;;;;;5008043;28;20197;-73
2021/08/01 18:42:55;;;;;;;2.47;2.00;;;;;;;;;;4993713;28;20218;-73
2021/08/01 18:46:00;;;;;;;3.73;1.60;;;;;;;;;;4980955;28;20206;-72
2021/08/01 18:49:04;;;;;;;4.23;2.20;;;;;;;;;;4993873;28;20194;-73